Time;durP1;ratioP1;P1;durP2;ratioP2;P2;SDS_P1;SDS_P2;PMS_P1;PMS_P2;Temp;Humidity;BMP_temperature;BMP_pressure;BME280_temperature;BME280_humidity;BME280_pressure;Samples;Min_cycle;Max_cycle;Signal;HPM_P1;HPM_P2
2023/06/22 00:02:15;;;;;;;5.57;3.40;;;;;;;24.41;62.07;95659.97;5005248;28;20205;-88
2023/06/22 00:04:43;;;;;;;8.40;3.30;;;;;;;24.31;62.21;95659.16;5001024;28;20200;-88
2023/06/22 00:07:10;;;;;;;5.80;4.18;;;;;;;24.21;63.21;95662.53;5008009;28;20230;-88
2023/06/22 00:09:37;;;;;;;6.10;4.28;;;;;;;24.21;62.96;95657.28;5009993;28;20191;-87
2023/06/22 00:12:04;;;;;;;7.60;3.65;;;;;;;24.18;62.81;95652.53;5009511;28;20203;-88
2023/06/22 00:14:31;;;;;;;6.05;3.70;;;;;;;24.11;62.85;95663.28;5009451;28;20222;-88
2023/06/22 00:16:58;;;;;;;6.72;3.63;;;;;;;24.22;62.52;95663.34;5007992;28;20229;-88
2023/06/22 00:19:25;;;;;;;5.30;3.70;;;;;;;24.22;62.56;95658.06;5010192;28;20219;-87
2023/06/22 00:21:53;;;;;;;5.90;3.75;;;;;;;24.15;62.99;95660.16;5009675;28;20201;-87
2023/06/22 00:24:23;;;;;;;6.78;3.17;;;;;;;24.07;62.98;95656.16;5009994;28;20223;-89
2023/06/22 00:26:49;;;;;;;6.75;3.45;;;;;;;24.03;63.10;95650.66;5000193;28;20215;-88
2023/06/22 00:29:16;;;;;;;7.93;4.18;;;;;;;23.88;63.93;95655.84;5008914;28;20702;-88
2023/06/22 00:31:43;;;;;;;9.20;3.60;;;;;;;23.90;63.71;95664.28;5008557;28;20664;-87
2023/06/22 00:34:09;;;;;;;6.95;3.85;;;;;;;23.80;64.35;95668.72;5008315;28;20211;-88
2023/06/22 00:36:36;;;;;;;5.00;3.35;;;;;;;23.82;64.50;95662.16;5009378;28;20904;-89
2023/06/22 00:39:05;;;;;;;6.20;3.75;;;;;;;23.76;64.33;95661.34;5009745;28;20229;-88
2023/06/22 00:41:32;;;;;;;5.80;3.63;;;;;;;23.75;64.53;95662.38;5009463;28;20206;-88
2023/06/22 00:43:58;;;;;;;5.25;3.55;;;;;;;23.78;64.33;95661.09;5009207;28;20695;-88
2023/06/22 00:46:25;;;;;;;6.60;3.70;;;;;;;23.83;64.03;95657.69;5006140;28;20204;-87
2023/06/22 00:48:57;;;;;;;4.85;3.17;;;;;;;23.85;63.97;95661.66;5004108;28;20203;-88
2023/06/22 00:51:26;;;;;;;5.18;3.60;;;;;;;23.82;64.12;95653.47;5001320;28;20202;-88
2023/06/22 00:53:53;;;;;;;7.15;3.70;;;;;;;23.73;64.30;95650.53;5009313;28;20778;-88
2023/06/22 00:56:24;;;;;;;7.15;3.50;;;;;;;23.70;64.31;95651.06;5009174;28;20210;-88
2023/06/22 00:58:52;;;;;;;8.82;3.58;;;;;;;23.63;64.25;95661.81;5009213;28;20219;-88
2023/06/22 01:01:23;;;;;;;5.28;3.30;;;;;;;23.46;64.86;95655.16;5009594;28;20257;-88
2023/06/22 01:03:50;;;;;;;6.22;4.00;;;;;;;23.37;65.01;95639.84;5009045;28;20194;-87
2023/06/22 01:06:26;;;;;;;5.13;3.63;;;;;;;23.44;65.15;95642.25;5003937;28;20841;-88
2023/06/22 01:09:05;;;;;;;6.57;3.75;;;;;;;23.47;65.05;95636.50;5008585;28;20660;-88
2023/06/22 01:11:41;;;;;;;5.88;3.80;;;;;;;23.48;65.10;95632.78;5008986;28;20199;-88
2023/06/22 01:14:16;;;;;;;7.07;3.88;;;;;;;23.40;64.99;95628.84;5008270;28;20202;-89
2023/06/22 01:16:45;;;;;;;5.03;3.38;;;;;;;23.45;64.76;95622.81;5009124;28;20210;-88
2023/06/22 01:19:29;;;;;;;5.25;3.63;;;;;;;23.40;65.07;95620.94;5008784;28;20223;-88
2023/06/22 01:21:58;;;;;;;7.88;4.13;;;;;;;23.41;65.00;95621.75;5007080;28;20210;-88
2023/06/22 01:24:31;;;;;;;5.30;3.63;;;;;;;23.42;65.15;95616.22;5008910;28;20203;-88
2023/06/22 01:27:10;;;;;;;4.80;3.65;;;;;;;23.46;65.18;95615.72;5006406;28;20218;-87
2023/06/22 01:29:40;;;;;;;3.88;3.20;;;;;;;23.51;64.68;95619.13;5009207;28;20269;-88
2023/06/22 01:32:07;;;;;;;5.38;3.28;;;;;;;23.50;65.00;95616.75;5009033;28;20199;-87
2023/06/22 01:34:35;;;;;;;5.35;3.40;;;;;;;23.48;65.01;95614.38;5009262;28;20229;-87
2023/06/22 01:37:02;;;;;;;6.00;3.60;;;;;;;23.36;65.31;95609.34;5009033;28;20226;-89
2023/06/22 01:39:30;;;;;;;7.75;4.00;;;;;;;23.27;65.60;95605.66;5003981;28;20233;-87
2023/06/22 01:41:57;;;;;;;9.55;4.15;;;;;;;23.19;66.03;95603.50;5008342;28;20221;-88
2023/06/22 01:44:26;;;;;;;5.78;3.75;;;;;;;23.21;65.95;95600.63;5008904;28;20202;-88
2023/06/22 01:46:54;;;;;;;7.28;3.88;;;;;;;23.11;66.27;95606.59;5007829;28;20219;-88
2023/06/22 01:49:21;;;;;;;6.20;4.35;;;;;;;23.18;65.99;95606.38;5008941;28;20202;-88
2023/06/22 01:51:47;;;;;;;5.72;3.78;;;;;;;23.26;65.69;95609.31;5008781;28;20207;-88
2023/06/22 01:54:14;;;;;;;6.50;4.00;;;;;;;23.26;65.80;95608.53;5003349;28;20214;-88
2023/06/22 01:56:40;;;;;;;6.18;4.10;;;;;;;23.34;65.64;95610.66;5008794;28;20222;-88
2023/06/22 01:59:12;;;;;;;5.72;3.50;;;;;;;23.23;65.82;95601.16;5008740;28;20230;-87
2023/06/22 02:01:44;;;;;;;6.85;3.90;;;;;;;23.28;65.63;95609.06;5007789;28;20195;-87
2023/06/22 02:04:19;;;;;;;7.05;3.60;;;;;;;23.29;65.42;95611.41;5008973;28;20571;-87
2023/06/22 02:06:48;;;;;;;6.53;3.78;;;;;;;23.20;66.05;95609.53;5008166;28;20305;-88
2023/06/22 02:09:17;;;;;;;6.57;4.15;;;;;;;23.18;65.98;95609.78;5009064;28;20221;-87
2023/06/22 02:11:46;;;;;;;6.78;4.15;;;;;;;23.30;66.18;95612.22;5003378;28;20237;-87
2023/06/22 02:14:14;;;;;;;5.50;3.88;;;;;;;23.33;65.38;95617.75;5008157;28;20554;-87
2023/06/22 02:16:41;;;;;;;6.28;3.58;;;;;;;23.36;65.63;95622.50;5008478;28;20601;-88
2023/06/22 02:19:08;;;;;;;4.43;3.85;;;;;;;23.41;65.70;95625.16;5008502;28;20218;-88
2023/06/22 02:21:36;;;;;;;4.75;3.53;;;;;;;23.53;65.36;95618.91;5007738;28;20556;-88
2023/06/22 02:24:03;;;;;;;5.15;3.70;;;;;;;23.57;65.12;95623.41;5008594;28;20207;-88
2023/06/22 02:26:29;;;;;;;5.40;3.78;;;;;;;23.55;65.17;95617.63;5003723;28;20229;-87
2023/06/22 02:28:56;;;;;;;5.25;3.67;;;;;;;23.66;64.74;95615.84;5007847;28;20207;-88
2023/06/22 02:31:22;;;;;;;6.63;4.10;;;;;;;23.53;65.17;95614.44;5008437;28;20570;-88
2023/06/22 02:33:49;;;;;;;5.90;4.22;;;;;;;23.41;65.81;95627.78;5008068;28;20711;-87
2023/06/22 02:36:16;;;;;;;5.32;3.95;;;;;;;23.33;66.21;95630.88;5008196;28;20206;-87
2023/06/22 02:38:47;;;;;;;4.93;4.20;;;;;;;23.34;66.06;95632.47;5008327;28;20199;-88
2023/06/22 02:41:17;;;;;;;6.50;4.22;;;;;;;23.27;66.34;95642.44;5008431;28;20199;-88
2023/06/22 02:43:44;;;;;;;5.57;4.00;;;;;;;23.37;65.88;95644.31;5004763;28;20203;-87
2023/06/22 02:46:11;;;;;;;5.53;3.92;;;;;;;23.25;66.27;95646.34;5006655;28;20214;-88
2023/06/22 02:48:37;;;;;;;5.82;4.28;;;;;;;23.17;66.22;95650.25;4995421;28;20693;-87
2023/06/22 02:51:04;;;;;;;5.45;4.13;;;;;;;22.98;67.08;95647.22;5007945;28;20196;-88
2023/06/22 02:53:30;;;;;;;6.47;3.90;;;;;;;22.94;67.12;95643.53;5008438;28;20861;-88
2023/06/22 02:56:01;;;;;;;7.25;4.00;;;;;;;22.89;67.76;95647.97;5011145;28;20206;-88
2023/06/22 02:58:27;;;;;;;7.15;4.00;;;;;;;22.80;67.92;95634.50;5009906;28;20787;-87
2023/06/22 03:00:54;;;;;;;6.97;4.00;;;;;;;22.80;68.25;95631.09;5010984;28;20223;-88
2023/06/22 03:03:20;;;;;;;7.38;4.28;;;;;;;22.69;69.16;95628.38;5011620;28;20198;-88
2023/06/22 03:05:47;;;;;;;6.03;3.80;;;;;;;22.69;68.54;95630.22;5011100;28;20207;-87
2023/06/22 03:08:13;;;;;;;5.78;4.25;;;;;;;22.61;69.17;95626.19;5011251;28;20281;-88
2023/06/22 03:10:42;;;;;;;6.32;4.47;;;;;;;22.64;69.23;95617.81;5011443;28;20195;-87
2023/06/22 03:13:09;;;;;;;6.00;4.30;;;;;;;22.67;69.18;95627.03;5011017;28;20207;-88
2023/06/22 03:15:36;;;;;;;5.72;3.83;;;;;;;22.71;68.90;95626.25;5005651;28;20230;-88
2023/06/22 03:18:02;;;;;;;8.20;4.50;;;;;;;22.85;68.52;95618.78;5011280;28;20227;-88
2023/06/22 03:20:33;;;;;;;7.85;4.53;;;;;;;22.84;68.81;95627.72;5009374;28;20311;-88
2023/06/22 03:22:59;;;;;;;5.63;3.97;;;;;;;22.84;68.43;95621.66;5002311;28;20226;-88
2023/06/22 03:25:26;;;;;;;6.05;4.20;;;;;;;22.85;68.32;95626.69;5009968;28;20206;-88
2023/06/22 03:27:53;;;;;;;7.10;4.63;;;;;;;22.73;69.12;95610.25;4992610;28;20234;-88
2023/06/22 03:30:20;;;;;;;7.20;4.15;;;;;;;22.71;69.12;95618.38;5008049;28;20806;-89
2023/06/22 03:32:47;;;;;;;6.25;4.50;;;;;;;22.60;69.84;95616.75;5008101;28;20199;-88
2023/06/22 03:35:14;;;;;;;5.18;4.30;;;;;;;22.64;69.75;95615.19;5010350;28;20684;-88
2023/06/22 03:37:43;;;;;;;5.78;4.25;;;;;;;22.62;69.88;95621.75;5010660;28;20218;-87
2023/06/22 03:40:10;;;;;;;6.38;4.28;;;;;;;22.73;69.53;95629.44;5001324;28;20565;-88
2023/06/22 03:42:39;;;;;;;6.47;4.28;;;;;;;22.78;69.08;95627.91;5010065;28;20794;-88
2023/06/22 03:45:07;;;;;;;5.85;4.30;;;;;;;22.76;69.27;95628.13;5010110;28;20206;-87
2023/06/22 03:47:35;;;;;;;6.68;3.88;;;;;;;22.94;68.58;95634.84;5004545;28;20219;-89
2023/06/22 03:50:03;;;;;;;6.78;4.57;;;;;;;23.07;68.18;95634.44;5006871;28;20237;-88
2023/06/22 03:52:29;;;;;;;7.03;4.45;;;;;;;23.00;68.39;95637.28;5010761;28;20241;-88
2023/06/22 03:54:56;;;;;;;7.18;4.30;;;;;;;22.98;68.66;95623.59;5010555;28;20203;-88
2023/06/22 03:57:22;;;;;;;7.85;4.38;;;;;;;23.04;68.53;95633.09;5010129;28;20223;-88
2023/06/22 03:59:49;;;;;;;5.85;4.32;;;;;;;23.13;68.15;95635.25;5009818;28;20226;-88
2023/06/22 04:02:15;;;;;;;5.72;4.32;;;;;;;23.09;68.47;95632.34;5010175;28;20629;-88
2023/06/22 04:04:43;;;;;;;7.03;4.00;;;;;;;23.10;68.04;95641.78;5005124;28;20199;-88
2023/06/22 04:07:10;;;;;;;7.72;4.85;;;;;;;23.00;68.91;95646.97;5010000;28;20211;-88
2023/06/22 04:09:36;;;;;;;5.22;4.20;;;;;;;23.18;67.95;95648.41;5010195;28;20198;-88
2023/06/22 04:12:08;;;;;;;5.75;4.28;;;;;;;23.21;68.43;95650.53;5005805;28;20203;-88
2023/06/22 04:14:35;;;;;;;7.10;4.28;;;;;;;23.17;68.56;95647.63;5010281;28;20278;-88
2023/06/22 04:17:02;;;;;;;7.38;4.72;;;;;;;23.20;68.12;95641.06;5010019;28;20226;-88
2023/06/22 04:19:28;;;;;;;6.20;4.40;;;;;;;23.21;68.76;95646.06;5008684;28;20205;-88
2023/06/22 04:21:56;;;;;;;8.15;4.65;;;;;;;23.45;69.39;95638.59;5010170;28;20211;-88
2023/06/22 04:24:22;;;;;;;4.32;3.60;;;;;;;23.75;67.92;95637.94;5010136;28;20199;-88
2023/06/22 04:26:54;;;;;;;5.80;4.70;;;;;;;23.93;66.62;95639.31;5009974;28;20214;-88
2023/06/22 04:29:29;;;;;;;6.30;4.40;;;;;;;24.02;65.95;95633.28;5010410;28;20199;-88
2023/06/22 04:31:58;;;;;;;7.70;5.00;;;;;;;23.99;65.74;95640.91;5009522;28;20637;-87
2023/06/22 04:34:26;;;;;;;5.68;4.10;;;;;;;23.95;65.89;95639.84;5006777;28;20208;-88
2023/06/22 04:36:52;;;;;;;5.55;5.05;;;;;;;23.74;66.03;95639.78;5006408;28;20249;-88
2023/06/22 04:39:20;;;;;;;6.70;4.60;;;;;;;23.79;66.32;95641.63;5009881;28;20209;-88
2023/06/22 04:41:47;;;;;;;6.47;4.60;;;;;;;23.64;67.17;95636.34;5009349;28;20219;-88
2023/06/22 04:44:23;;;;;;;6.47;5.13;;;;;;;23.58;66.68;95626.84;5009829;28;20217;-87
2023/06/22 04:46:53;;;;;;;6.78;4.95;;;;;;;23.49;67.94;95618.59;5009325;28;20222;-88
2023/06/22 04:49:23;;;;;;;6.40;5.03;;;;;;;23.58;67.57;95629.47;5009884;28;20198;-88
2023/06/22 04:51:51;;;;;;;5.22;4.65;;;;;;;23.61;67.58;95624.47;5007419;28;20257;-88
2023/06/22 04:54:18;;;;;;;9.05;4.97;;;;;;;23.59;67.29;95618.69;4998224;28;20253;-88
2023/06/22 04:56:46;;;;;;;7.60;4.75;;;;;;;23.64;67.60;95615.28;4995130;28;20239;-87
2023/06/22 04:59:20;;;;;;;5.75;4.97;;;;;;;23.50;67.26;95617.56;4990539;28;20286;-87
2023/06/22 05:01:53;;;;;;;6.78;5.32;;;;;;;23.52;67.04;95626.00;4992859;28;20234;-88
2023/06/22 05:04:20;;;;;;;7.38;4.97;;;;;;;23.50;67.42;95620.19;4993005;28;20242;-87
2023/06/22 05:06:49;;;;;;;8.45;5.20;;;;;;;23.54;67.51;95617.88;4995549;28;20218;-88
2023/06/22 05:09:17;;;;;;;9.85;5.30;;;;;;;23.57;67.60;95620.78;5007416;28;20210;-87
2023/06/22 05:11:45;;;;;;;8.85;4.82;;;;;;;23.58;67.39;95619.72;5011732;28;20875;-88
2023/06/22 05:14:13;;;;;;;8.63;4.97;;;;;;;23.62;67.39;95614.75;5013126;28;20187;-87
2023/06/22 05:16:43;;;;;;;8.82;5.07;;;;;;;23.72;66.94;95614.78;5012045;28;20723;-87
2023/06/22 05:19:10;;;;;;;9.80;5.40;;;;;;;23.79;66.96;95617.97;5012079;28;20332;-87
2023/06/22 05:21:37;;;;;;;8.90;5.47;;;;;;;23.82;66.65;95612.19;5011711;28;20226;-87
2023/06/22 05:24:05;;;;;;;8.95;5.13;;;;;;;23.89;66.69;95606.69;5008484;28;20286;-87
2023/06/22 05:26:32;;;;;;;10.73;5.68;;;;;;;23.88;66.67;95600.63;5011637;28;20203;-87
2023/06/22 05:29:00;;;;;;;9.35;5.63;;;;;;;23.92;66.35;95609.59;5011777;28;20226;-87
2023/06/22 05:31:28;;;;;;;7.15;5.30;;;;;;;23.93;67.17;95615.63;5007845;28;20231;-87
2023/06/22 05:33:56;;;;;;;9.57;5.45;;;;;;;24.10;65.88;95616.97;5006812;28;20253;-87
2023/06/22 05:36:24;;;;;;;8.82;5.85;;;;;;;24.16;65.63;95604.63;5012279;28;20237;-88
2023/06/22 05:38:54;;;;;;;7.15;5.28;;;;;;;24.17;66.31;95610.69;5012247;28;20203;-87
2023/06/22 05:41:20;;;;;;;7.90;5.82;;;;;;;24.17;66.35;95614.13;5005540;28;20700;-87
2023/06/22 05:43:47;;;;;;;7.63;5.53;;;;;;;24.23;66.23;95605.19;5011141;28;20207;-88
2023/06/22 05:46:13;;;;;;;7.50;6.00;;;;;;;24.33;65.96;95599.16;5011020;28;20386;-87
2023/06/22 05:48:41;;;;;;;12.00;6.97;;;;;;;24.37;66.27;95598.38;5010225;28;20250;-87
2023/06/22 05:51:08;;;;;;;16.02;7.65;;;;;;;24.31;66.23;95596.00;4993404;28;20199;-88
2023/06/22 05:53:34;;;;;;;9.85;6.70;;;;;;;24.33;66.16;95596.53;4991092;28;20211;-87
2023/06/22 05:56:04;;;;;;;11.07;6.32;;;;;;;24.47;65.72;95597.56;4994813;28;20707;-87
2023/06/22 05:58:30;;;;;;;9.45;6.10;;;;;;;24.52;64.97;95600.22;5010296;28;20284;-87
2023/06/22 06:00:56;;;;;;;8.43;6.00;;;;;;;24.48;64.98;95593.88;5009957;28;20223;-87
2023/06/22 06:03:23;;;;;;;11.48;6.22;;;;;;;24.60;64.79;95607.59;5009891;28;20852;-87
2023/06/22 06:05:51;;;;;;;8.68;7.10;;;;;;;24.58;65.14;95622.88;5010269;28;20210;-87
2023/06/22 06:08:17;;;;;;;8.88;5.90;;;;;;;24.71;64.56;95614.41;5010036;28;20713;-87
2023/06/22 06:10:44;;;;;;;12.65;6.25;;;;;;;24.76;64.84;95605.75;5011210;28;20194;-88
2023/06/22 06:13:10;;;;;;;9.82;7.20;;;;;;;24.78;64.80;95606.25;5009546;28;20210;-87
2023/06/22 06:15:36;;;;;;;9.18;7.78;;;;;;;24.81;64.37;95605.75;5010648;28;20207;-87
2023/06/22 06:18:06;;;;;;;9.32;6.53;;;;;;;24.93;64.37;95600.97;5010790;28;20233;-87
2023/06/22 06:20:33;;;;;;;10.05;6.10;;;;;;;25.03;63.42;95606.22;5010961;28;20297;-88
2023/06/22 06:23:01;;;;;;;9.05;7.18;;;;;;;25.09;63.88;95605.19;5009845;28;20214;-88
2023/06/22 06:25:28;;;;;;;11.48;8.25;;;;;;;25.00;63.93;95600.72;5010067;28;20302;-87
2023/06/22 06:27:56;;;;;;;15.70;10.88;;;;;;;25.09;63.16;95589.38;4999804;28;20227;-87
2023/06/22 06:30:23;;;;;;;11.93;7.68;;;;;;;25.08;62.90;95577.25;5013002;28;20553;-87
2023/06/22 06:33:04;;;;;;;11.63;7.30;;;;;;;25.00;64.01;95587.56;5013361;28;20811;-87
2023/06/22 06:35:33;;;;;;;11.23;6.15;;;;;;;24.95;63.54;95595.47;5013891;28;20199;-88
2023/06/22 06:38:02;;;;;;;9.73;6.72;;;;;;;24.97;63.99;95591.50;5012979;28;20225;-87
2023/06/22 06:40:30;;;;;;;9.52;6.70;;;;;;;25.01;64.06;95581.25;5008026;28;20227;-88
2023/06/22 06:42:57;;;;;;;12.13;6.53;;;;;;;25.18;63.56;95581.72;4993361;28;20677;-87
2023/06/22 06:45:25;;;;;;;9.00;6.43;;;;;;;25.38;63.23;95588.75;5005570;28;20203;-87
2023/06/22 06:47:54;;;;;;;11.75;6.72;;;;;;;25.52;63.09;95592.41;5009404;28;20281;-87
2023/06/22 06:50:23;;;;;;;11.30;6.13;;;;;;;25.58;61.76;95585.25;5013867;28;20630;-87
2023/06/22 06:52:51;;;;;;;9.68;6.18;;;;;;;25.49;61.86;95582.38;5013858;28;20203;-88
2023/06/22 06:55:20;;;;;;;9.55;6.53;;;;;;;25.53;62.31;95578.16;5013769;28;20253;-87
2023/06/22 06:57:48;;;;;;;9.82;6.50;;;;;;;25.61;61.46;95582.84;5012642;28;20232;-88
2023/06/22 07:00:16;;;;;;;12.38;6.18;;;;;;;25.60;62.10;95581.25;5011232;28;20211;-87
2023/06/22 07:02:48;;;;;;;8.57;6.10;;;;;;;25.73;61.55;95578.09;5012445;28;20312;-87
2023/06/22 07:05:15;;;;;;;10.13;6.25;;;;;;;25.75;60.94;95583.09;5012090;28;20313;-87
2023/06/22 07:07:42;;;;;;;13.63;7.60;;;;;;;25.75;61.34;95583.88;5012124;28;20594;-88
2023/06/22 07:10:09;;;;;;;10.27;6.30;;;;;;;25.89;61.12;95583.28;5012318;28;20619;-87
2023/06/22 07:12:40;;;;;;;9.32;6.40;;;;;;;26.00;60.17;95585.56;5012638;28;20637;-88
2023/06/22 07:15:12;;;;;;;9.18;6.40;;;;;;;26.05;60.30;95584.75;5012408;28;20644;-87
2023/06/22 07:17:41;;;;;;;10.88;6.75;;;;;;;26.04;60.00;95583.97;5009895;28;20317;-87
2023/06/22 07:20:10;;;;;;;10.98;6.13;;;;;;;26.20;60.07;95589.13;5011980;28;20727;-87
2023/06/22 07:22:37;;;;;;;14.00;9.65;;;;;;;26.29;59.80;95577.75;5011589;28;20258;-87
2023/06/22 07:25:09;;;;;;;10.60;6.53;;;;;;;26.31;59.67;95572.22;5003935;28;20190;-88
2023/06/22 07:27:42;;;;;;;9.88;7.03;;;;;;;26.37;59.23;95581.63;4996046;28;20825;-87
2023/06/22 07:30:12;;;;;;;9.85;6.93;;;;;;;26.37;59.44;95569.22;4992318;28;20628;-88
2023/06/22 07:32:39;;;;;;;10.38;6.68;;;;;;;26.39;58.96;95575.03;4995184;28;20195;-88
2023/06/22 07:35:13;;;;;;;8.40;6.00;;;;;;;26.55;59.80;95567.78;5011134;28;20207;-87
2023/06/22 07:37:40;;;;;;;10.05;6.57;;;;;;;26.58;58.43;95561.94;5011327;28;20280;-88
2023/06/22 07:40:09;;;;;;;9.88;7.28;;;;;;;26.57;57.93;95562.19;5011726;28;20277;-87
2023/06/22 07:42:37;;;;;;;10.25;6.78;;;;;;;26.61;58.63;95555.31;5012884;28;20219;-87
2023/06/22 07:45:04;;;;;;;15.45;7.00;;;;;;;26.70;58.52;95553.66;5017616;28;20242;-86
2023/06/22 07:47:33;;;;;;;11.32;6.78;;;;;;;26.71;57.71;95549.94;4993835;28;20233;-86
2023/06/22 07:50:01;;;;;;;8.45;6.03;;;;;;;26.84;57.23;95549.28;5002204;28;20206;-86
2023/06/22 07:52:27;;;;;;;14.55;7.07;;;;;;;26.89;58.03;95543.94;5012591;28;20209;-86
2023/06/22 07:54:54;;;;;;;10.93;6.50;;;;;;;26.99;56.78;95549.16;4998376;28;20203;-86
2023/06/22 07:57:20;;;;;;;13.85;6.78;;;;;;;27.09;56.55;95545.63;4992922;28;20238;-86
2023/06/22 07:59:48;;;;;;;11.63;6.80;;;;;;;27.24;55.47;95553.38;5013252;28;20595;-87
2023/06/22 08:02:15;;;;;;;11.77;6.65;;;;;;;27.29;55.39;95549.88;5012562;28;20219;-87
2023/06/22 08:04:42;;;;;;;12.07;6.50;;;;;;;27.46;55.32;95553.63;5011790;28;20211;-87
2023/06/22 08:07:09;;;;;;;11.73;6.45;;;;;;;27.58;55.47;95552.44;5012841;28;20233;-87
2023/06/22 08:09:36;;;;;;;16.08;6.78;;;;;;;27.50;55.28;95548.56;5012853;28;20206;-87
2023/06/22 08:12:02;;;;;;;11.25;6.60;;;;;;;27.57;54.99;95561.44;5013062;28;20207;-87
2023/06/22 08:14:30;;;;;;;10.57;6.68;;;;;;;27.58;54.69;95552.44;5012822;28;20199;-86
2023/06/22 08:16:58;;;;;;;12.88;6.30;;;;;;;27.75;54.48;95553.53;5012547;28;20227;-87
2023/06/22 08:19:24;;;;;;;14.93;6.72;;;;;;;27.84;53.70;95548.41;5010890;28;20210;-86
2023/06/22 08:21:51;;;;;;;11.52;6.50;;;;;;;28.02;53.76;95542.31;5008992;28;20214;-86
2023/06/22 08:24:17;;;;;;;12.40;6.30;;;;;;;28.18;52.79;95537.56;5012540;28;20684;-86
2023/06/22 08:26:44;;;;;;;11.15;8.25;;;;;;;28.30;52.67;95540.56;5012972;28;20215;-86
2023/06/22 08:29:10;;;;;;;11.13;6.90;;;;;;;28.32;52.26;95532.34;5012855;28;20206;-86
2023/06/22 08:31:37;;;;;;;12.00;6.70;;;;;;;28.51;51.93;95533.06;5012579;28;20203;-87
2023/06/22 08:34:04;;;;;;;12.68;6.47;;;;;;;28.39;51.37;95538.06;5012442;28;20257;-86
2023/06/22 08:36:37;;;;;;;13.15;6.97;;;;;;;28.38;51.72;95536.47;5012144;28;20230;-87
2023/06/22 08:39:04;;;;;;;11.60;6.53;;;;;;;28.48;51.66;95537.09;5010080;28;20214;-87
2023/06/22 08:41:33;;;;;;;9.15;6.63;;;;;;;28.60;51.37;95536.63;5008272;28;20320;-87
2023/06/22 08:44:00;;;;;;;12.15;6.68;;;;;;;28.61;51.65;95537.44;4995662;28;20223;-86
2023/06/22 08:46:30;;;;;;;10.63;6.38;;;;;;;28.71;51.84;95534.59;4996566;28;20199;-86
2023/06/22 08:48:56;;;;;;;12.27;6.85;;;;;;;28.83;51.16;95543.69;5012444;28;20203;-87
2023/06/22 08:51:24;;;;;;;13.20;6.45;;;;;;;28.88;50.89;95527.66;5011777;28;20206;-87
2023/06/22 08:53:51;;;;;;;10.77;6.55;;;;;;;28.86;50.57;95532.47;5005514;28;20203;-86
2023/06/22 08:56:17;;;;;;;10.73;6.47;;;;;;;28.97;50.87;95535.75;5002666;28;20203;-87
2023/06/22 08:58:47;;;;;;;12.43;7.32;;;;;;;29.00;49.80;95531.72;4997264;28;20315;-88
2023/06/22 09:01:15;;;;;;;10.30;6.70;;;;;;;29.08;49.63;95523.84;4990338;28;20223;-87
2023/06/22 09:03:42;;;;;;;10.98;6.45;;;;;;;29.26;49.76;95526.69;4988187;28;20657;-87
2023/06/22 09:06:14;;;;;;;8.15;6.32;;;;;;;29.43;48.90;95521.59;4994964;28;20210;-87
2023/06/22 09:08:46;;;;;;;13.77;6.47;;;;;;;29.50;48.87;95516.66;5009468;28;20211;-88
2023/06/22 09:11:12;;;;;;;10.90;6.30;;;;;;;29.74;48.49;95525.16;5008710;28;20597;-87
2023/06/22 09:13:39;;;;;;;11.95;6.90;;;;;;;29.88;47.13;95517.16;5010014;28;20301;-87
2023/06/22 09:16:06;;;;;;;11.15;6.13;;;;;;;30.08;47.60;95518.59;5002213;28;20911;-87
2023/06/22 09:18:33;;;;;;;11.82;6.72;;;;;;;30.16;47.80;95517.88;4990849;28;20215;-87
2023/06/22 09:20:59;;;;;;;15.45;6.88;;;;;;;30.33;47.47;95528.63;5000387;28;20206;-87
2023/06/22 09:23:26;;;;;;;12.65;6.70;;;;;;;30.35;46.66;95515.81;5009927;28;20210;-87
2023/06/22 09:25:53;;;;;;;10.23;6.65;;;;;;;30.47;47.01;95516.03;5007689;28;20207;-88
2023/06/22 09:28:29;;;;;;;11.32;6.90;;;;;;;30.52;45.90;95517.78;5009649;28;20234;-87
2023/06/22 09:31:06;;;;;;;15.57;7.57;;;;;;;30.61;44.66;95505.34;5010643;28;20273;-87
2023/06/22 09:33:33;;;;;;;11.30;6.47;;;;;;;30.64;45.76;95512.72;5009742;28;20212;-88
2023/06/22 09:35:59;;;;;;;13.50;6.63;;;;;;;30.78;45.96;95500.13;5009371;28;20838;-87
2023/06/22 09:38:26;;;;;;;11.77;6.53;;;;;;;30.85;44.98;95503.09;4993105;28;20262;-87
2023/06/22 09:40:54;;;;;;;12.18;6.50;;;;;;;30.94;44.96;95508.47;5011616;28;20234;-88
2023/06/22 09:46:57;;;;;;;8.50;6.10;;;;;;;30.96;44.87;95505.50;4995533;28;20273;-88
2023/06/22 09:49:33;;;;;;;13.13;6.50;;;;;;;31.17;44.18;95494.03;5008763;28;20201;-88
2023/06/22 09:52:36;;;;;;;14.43;6.82;;;;;;;31.36;43.81;95504.41;5009086;28;20249;-87
2023/06/22 09:55:15;;;;;;;12.02;6.70;;;;;;;31.50;43.08;95505.03;4997217;28;20211;-87
2023/06/22 09:57:44;;;;;;;10.50;6.70;;;;;;;31.55;43.04;95502.25;4988154;28;20227;-87
2023/06/22 10:00:13;;;;;;;10.85;6.65;;;;;;;31.57;42.09;95483.28;5008115;28;20583;-87
2023/06/22 10:02:43;;;;;;;17.63;6.72;;;;;;;31.57;42.71;95485.94;4995537;28;20223;-87
2023/06/22 10:05:15;;;;;;;12.75;6.57;;;;;;;31.63;41.87;95489.22;4991925;28;20203;-88
2023/06/22 10:07:43;;;;;;;12.40;6.85;;;;;;;31.66;41.97;95488.66;4992233;28;20220;-87
2023/06/22 10:10:11;;;;;;;10.43;6.28;;;;;;;31.94;41.99;95485.34;4991958;28;20238;-87
2023/06/22 10:12:45;;;;;;;13.23;6.05;;;;;;;32.32;41.66;95475.94;5006335;28;20604;-87
2023/06/22 10:15:16;;;;;;;11.20;5.90;;;;;;;32.48;41.36;95472.44;5006055;28;20207;-87
2023/06/22 10:17:46;;;;;;;13.45;6.32;;;;;;;32.58;41.11;95471.28;5012250;28;20235;-87
2023/06/22 10:20:36;;;;;;;;;;;;;;;;;;;;;
2023/06/22 10:23:08;;;;;;;12.45;6.68;;;;;;;32.83;40.98;95478.44;5010347;28;20222;-88
2023/06/22 10:25:34;;;;;;;11.20;6.50;;;;;;;32.87;41.04;95479.38;4992920;28;20203;-87
2023/06/22 10:28:18;;;;;;;12.80;7.03;;;;;;;32.95;40.23;95481.22;5007472;28;20224;-87
2023/06/22 10:30:52;;;;;;;11.07;6.80;;;;;;;33.11;40.58;95478.78;4998680;28;20211;-88
2023/06/22 10:33:19;;;;;;;14.95;10.20;;;;;;;33.16;40.17;95483.16;5010776;28;20234;-88
2023/06/22 10:36:09;;;;;;;8.65;6.40;;;;;;;33.20;39.75;95463.50;5009987;28;20207;-92
2023/06/22 10:38:59;;;;;;;12.20;7.05;;;;;;;33.29;39.39;95461.56;5008198;28;20222;-90
2023/06/22 10:44:33;;;;;;;9.90;5.97;;;;;;;33.59;39.79;95453.53;4982916;28;20572;-87
2023/06/22 10:50:11;;;;;;;11.77;7.32;;;;;;;33.63;39.28;95443.75;4958878;28;20212;-89
2023/06/22 10:52:37;;;;;;;14.73;6.70;;;;;;;33.57;39.13;95443.16;4991715;28;20213;-88
2023/06/22 10:57:52;;;;;;;15.00;6.82;;;;;;;33.72;39.25;95431.09;4992203;28;20314;-88
2023/06/22 11:00:24;;;;;;;13.80;6.28;;;;;;;33.61;39.91;95440.63;4997294;28;20261;-88
2023/06/22 11:02:50;;;;;;;13.73;6.03;;;;;;;33.32;40.52;95427.34;5006639;28;20218;-89
2023/06/22 11:05:20;;;;;;;12.13;6.53;;;;;;;32.98;40.63;95434.44;5010947;28;20206;-89
2023/06/22 11:07:49;;;;;;;14.02;6.55;;;;;;;32.77;41.17;95444.28;5010844;28;20226;-88
2023/06/22 11:10:16;;;;;;;10.70;7.13;;;;;;;32.70;42.32;95438.63;5001761;28;20249;-88
2023/06/22 11:12:50;;;;;;;11.75;6.50;;;;;;;32.76;42.16;95442.69;5010125;28;20210;-88
2023/06/22 11:15:16;;;;;;;12.93;6.45;;;;;;;32.84;42.13;95434.66;5010247;28;20743;-88
2023/06/22 11:17:46;;;;;;;15.27;7.25;;;;;;;32.88;42.04;95432.16;5009347;28;20218;-88
2023/06/22 11:20:24;;;;;;;17.25;12.20;;;;;;;32.87;41.99;95434.03;4998667;28;20211;-88
2023/06/22 11:23:16;;;;;;;13.20;10.80;;;;;;;32.80;42.60;95432.97;4988494;28;20608;-88
2023/06/22 11:25:46;;;;;;;10.73;7.25;;;;;;;33.10;41.82;95429.16;4990400;28;20286;-88
2023/06/22 11:28:15;;;;;;;13.30;7.57;;;;;;;33.43;41.05;95431.19;4997262;28;20227;-88
2023/06/22 11:30:46;;;;;;;10.05;6.78;;;;;;;33.64;40.69;95421.28;5003922;28;20218;-88
2023/06/22 11:33:20;;;;;;;10.65;6.32;;;;;;;33.88;40.12;95424.06;5010720;28;20210;-88
2023/06/22 11:35:50;;;;;;;14.50;7.28;;;;;;;34.04;40.31;95418.13;5006068;28;20695;-89
2023/06/22 11:38:25;;;;;;;11.30;6.32;;;;;;;34.23;39.73;95418.41;5010639;28;20305;-88
2023/06/22 11:40:54;;;;;;;12.98;6.43;;;;;;;34.31;39.49;95412.19;4991178;28;20199;-88
2023/06/22 11:43:36;;;;;;;13.30;6.82;;;;;;;34.37;39.68;95405.53;4990469;28;20223;-88
2023/06/22 11:46:13;;;;;;;14.18;6.45;;;;;;;34.61;39.38;95400.19;4991382;28;20206;-88
2023/06/22 11:48:41;;;;;;;12.65;7.05;;;;;;;34.61;38.75;95399.41;5010706;28;20247;-88
2023/06/22 11:51:12;;;;;;;11.48;6.60;;;;;;;34.54;39.01;95393.84;5008502;28;20237;-88
2023/06/22 11:53:50;;;;;;;14.55;6.72;;;;;;;34.72;38.72;95397.06;5001324;28;20206;-88